Airfield :
LOGIN :

Register | Disclaimer

   EN    FR    IT 

 










Legend :    VFR   Marginal VFR   IFR   Intensive IFR   Very Intensive IFR
Visi :
Ceiling :
>= 8 km
>= 3000ft
5 to 8 km
1000 to 3000 ft
1500m to 5 km
500 to 1000 ft
800 to 1500m
200 to 500 ft
< 800m
< 200 ft
Symbols :   Thunderstorms  Fog  Heavy snow  Heavy precipitations  Wind > 20 kt
SIGMETs :     Misc.  Thunderstorms  Icing  Turbulence  Mountain Waves  Volcanic Ashes






- Airport Elevation : 299 ft
- IATA code : EDM


LFRI - La Roche Sur Yon - Les Ajoncs

CURRENT METAR :
  • 231900Z AUTO 28007KT 250V310 9999 SCT028 16/10 Q1018 NOSIG

EXPIRED METARs :
  • 231830Z AUTO 27006KT 240V310 9999 FEW030 17/10 Q1018 NOSIG
  • 231800Z AUTO 29006KT 230V330 9999 SCT032 17/11 Q1018 NOSIG
  • 231730Z AUTO 28008KT 9999 SCT033 17/11 Q1018 NOSIG
  • 231700Z AUTO 30010KT 9999 BKN032 17/11 Q1018 NOSIG
  • 231630Z AUTO 29009KT 260V330 9999 BKN035 18/11 Q1018 NOSIG
  • 231600Z AUTO 27008KT 240V310 9999 SCT034 BKN040 18/11 Q1018 NOSIG
  • 231530Z AUTO 27009KT 240V310 9999 BKN035/// ///TCU 18/11 Q1018 BECMG SCT020
  • 231500Z AUTO 26008KT 220V300 9999 BKN034/// ///TCU 18/11 Q1018 BECMG SCT020
  • 231430Z AUTO 27009KT 210V300 9999 SCT032/// SCT038/// ///CB 19/11 Q1018 BECMG SCT020

TAF TAF LFRI
Valid from the 23 at 18:00 until the 24 at 18:00 UTC


231700Z 2318/2418 27010KT 9999 SCT035
BECMG 2321/2324 VRB04KT
PROB30 2321/2324 -SHRA SCT020TCU
TEMPO 2410/2417 -SHRA BKN040TCU



MET'MAP, your aeronautical weather chart ! - Copyright ORBIFLY December 2007 - Disclaimer

ORBIFLY MET'MAP TEAM :

Programming & Development : Alexandra Zaïnal
Original concept : Baudouin d'Aumeries
Technical & hardware support : Manuel Goepfert
Assistance : Marc-Olivier Méhu




SOURCES & CREDITS :

   NOAA